VVPB

Phu Bai Airport

Hue, Vietnam
TAF VVPB 212300Z 2200/2224 30008KT 3500 BR SCT006 SCT010 BKN040 TEMPO 2200/2205 1700 RA BR BECMG 2205/2206 6000 NSW TEMPO 2206/2212 3200 RA BR TEMPO 2212/2224 2000 RA BR
Issued Valid From Valid To
Jan-21 @ 23:00 UTC
(an hour ago)
Jan-22 @ 00:00 UTC
(7 minutes ago)
Jan-23 @ 00:00 UTC
(in 24 hours)
Jan-22 @ 00:00 to Jan-22 @ 05:00
TAF VVPB 212300Z 2200/2224 30008KT 3500 BR SCT006 SCT010 BKN040
Wind Visibility Clouds Conditions
300° at 8 knots 3,492 meters
  • Scattered at 600' AGL
  • Scattered at 1,000' AGL
  • Broken at 4,000' AGL
  • Mist
Temporary Jan-22 @ 00:00 to Jan-22 @ 05:00
TEMPO 2200/2205 1700 RA BR
Visibility Conditions
1,706 meters
  • Rain
  • Mist
Becoming Jan-22 @ 05:00 to Jan-23 @ 00:00
BECMG 2205/2206 6000 NSW
Wind Visibility Clouds Conditions
300° at 8 knots 6,003 meters
  • Scattered at 600' AGL
  • Scattered at 1,000' AGL
  • Broken at 4,000' AGL
Temporary Jan-22 @ 06:00 to Jan-22 @ 12:00
TEMPO 2206/2212 3200 RA BR
Visibility Conditions
3,203 meters
  • Rain
  • Mist
Temporary Jan-22 @ 12:00 to Jan-23 @ 00:00
TEMPO 2212/2224 2000 RA BR
Visibility Conditions
1,996 meters
  • Rain
  • Mist
TAF VVPB 212300Z 2200/2224 30008KT 3500 BR SCT006 SCT010 BKN040 TEMPO 2200/2205 1700 RA BR BECMG 2205/2206 6000 NSW TEMPO 2206/2212 3200 RA BR TEMPO 2212/2224 2000 RA BR
Issued Jan-21 @ 23:00 UTC
(an hour ago)
Valid From Jan-22 @ 00:00 UTC
(7 minutes ago)
Valid To Jan-23 @ 00:00 UTC
(in 24 hours)
Jan-22 @ 00:00 - Jan-22 @ 05:00
Wind Visibility
300° at 8 knots 3,492 meters
Clouds
  • Scattered at 600' AGL
  • Scattered at 1,000' AGL
  • Broken at 4,000' AGL
Conditions
  • Mist
Temporary Jan-22 @ 00:00 - Jan-22 @ 05:00
Conditions
  • Rain
  • Mist
Becoming Jan-22 @ 05:00 - Jan-23 @ 00:00
Wind Visibility
300° at 8 knots 6,003 meters
Clouds
  • Scattered at 600' AGL
  • Scattered at 1,000' AGL
  • Broken at 4,000' AGL
Conditions
Temporary Jan-22 @ 06:00 - Jan-22 @ 12:00
Conditions
  • Rain
  • Mist
Temporary Jan-22 @ 12:00 - Jan-23 @ 00:00
Conditions
  • Rain
  • Mist